Time;durP1;ratioP1;P1;durP2;ratioP2;P2;SDS_P1;SDS_P2;PMS_P1;PMS_P2;Temp;Humidity;BMP_temperature;BMP_pressure;BME280_temperature;BME280_humidity;BME280_pressure;Samples;Min_cycle;Max_cycle;Signal;HPM_P1;HPM_P2
2022/01/17 00:01:09;;;;;;;18.30;13.18;;;5.80;99.90;;;;;;5005952;28;20022;-83
2022/01/17 00:03:35;;;;;;;17.30;11.93;;;5.80;99.90;;;;;;5001124;28;20480;-83
2022/01/17 00:06:02;;;;;;;17.83;12.68;;;5.80;99.90;;;;;;4996850;28;20026;-82
2022/01/17 00:08:31;;;;;;;22.30;14.18;;;5.90;99.90;;;;;;5000905;28;20109;-82
2022/01/17 00:11:03;;;;;;;23.25;14.50;;;5.90;99.90;;;;;;5005720;28;20655;-81
2022/01/17 00:13:30;;;;;;;24.10;13.57;;;5.80;99.90;;;;;;5001748;28;20033;-83
2022/01/17 00:16:22;;;;;;;18.45;12.60;;;5.70;99.90;;;;;;4995721;28;20030;-83
2022/01/17 00:21:17;;;;;;;18.58;12.20;;;5.60;99.90;;;;;;4992818;28;20157;-82
2022/01/17 00:23:44;;;;;;;16.40;11.85;;;5.60;99.90;;;;;;4992887;28;20416;-82
2022/01/17 00:26:10;;;;;;;18.30;11.63;;;5.60;99.90;;;;;;4996168;28;20216;-83
2022/01/17 00:28:36;;;;;;;19.10;12.27;;;5.50;99.90;;;;;;4995303;28;20382;-81
2022/01/17 00:31:04;;;;;;;15.98;11.60;;;5.50;99.90;;;;;;5004030;28;20061;-82
2022/01/17 00:33:32;;;;;;;20.50;12.38;;;5.40;99.90;;;;;;4999222;28;20505;-83
2022/01/17 00:35:58;;;;;;;14.57;11.25;;;5.40;99.90;;;;;;5004689;28;20022;-84
2022/01/17 00:38:24;;;;;;;15.32;12.05;;;5.40;99.90;;;;;;5000558;28;20100;-80
2022/01/17 00:40:50;;;;;;;19.02;12.65;;;5.40;99.90;;;;;;5019814;28;20045;-80
2022/01/17 00:43:16;;;;;;;18.58;13.32;;;5.50;99.90;;;;;;5020739;28;20413;-80
2022/01/17 00:45:44;;;;;;;18.88;12.02;;;5.60;99.90;;;;;;5017719;28;20029;-79
2022/01/17 00:48:10;;;;;;;20.23;12.80;;;5.80;99.90;;;;;;5018162;28;20037;-80
2022/01/17 00:50:40;;;;;;;16.23;11.95;;;5.90;99.90;;;;;;5018834;28;20022;-80
2022/01/17 00:53:07;;;;;;;16.38;12.45;;;5.90;99.90;;;;;;5020688;28;20026;-80
2022/01/17 00:55:36;;;;;;;15.77;12.20;;;6.00;99.90;;;;;;5023075;28;20590;-80
2022/01/17 00:58:02;;;;;;;15.77;12.70;;;6.00;99.90;;;;;;4999196;28;20022;-79
2022/01/17 01:00:28;;;;;;;16.77;12.40;;;6.00;99.90;;;;;;5018394;28;20029;-79
2022/01/17 01:02:55;;;;;;;20.25;12.73;;;5.90;99.90;;;;;;5019748;28;20026;-79
2022/01/17 01:05:21;;;;;;;19.85;13.77;;;6.00;99.90;;;;;;4994452;28;20112;-79
2022/01/17 01:07:47;;;;;;;24.63;13.88;;;6.00;99.90;;;;;;5017984;28;20044;-79
2022/01/17 01:10:14;;;;;;;16.63;12.35;;;6.00;99.90;;;;;;5021170;28;20040;-80
2022/01/17 01:12:46;;;;;;;19.60;13.02;;;6.00;99.90;;;;;;5021521;28;20097;-79
2022/01/17 01:15:19;;;;;;;19.65;13.10;;;6.00;99.90;;;;;;5003371;28;20091;-80
2022/01/17 01:17:55;;;;;;;17.83;12.60;;;6.10;99.90;;;;;;5024343;28;20485;-80
2022/01/17 01:28:21;;;;;;;16.88;12.27;;;6.30;99.90;;;;;;5023839;28;20133;-80
2022/01/17 01:30:50;;;;;;;15.73;12.35;;;6.30;99.90;;;;;;5014967;28;20052;-80
2022/01/17 01:33:23;;;;;;;19.85;12.43;;;6.40;99.90;;;;;;5023007;28;20784;-81
2022/01/17 01:35:56;;;;;;;17.60;12.60;;;6.40;99.90;;;;;;5014495;28;20384;-80
2022/01/17 01:38:22;;;;;;;22.67;12.52;;;6.50;99.90;;;;;;5021256;28;20480;-80
2022/01/17 01:40:48;;;;;;;19.27;13.27;;;6.50;99.90;;;;;;5027417;28;20049;-80
2022/01/17 01:43:15;;;;;;;15.98;13.23;;;6.70;99.90;;;;;;5021588;28;20022;-80
2022/01/17 01:45:40;;;;;;;19.52;13.20;;;6.70;99.90;;;;;;5014063;28;20033;-80
2022/01/17 01:48:08;;;;;;;20.67;13.48;;;6.70;99.90;;;;;;5024166;28;20033;-80
2022/01/17 01:50:34;;;;;;;20.70;13.27;;;6.80;99.90;;;;;;5004569;28;20065;-80
2022/01/17 01:53:00;;;;;;;21.90;14.18;;;6.70;99.90;;;;;;5023341;28;20026;-80
2022/01/17 01:55:26;;;;;;;20.50;13.65;;;6.70;99.90;;;;;;5013790;28;20029;-79
2022/01/17 01:57:53;;;;;;;16.80;13.70;;;6.60;99.90;;;;;;5023196;28;20025;-80
2022/01/17 02:00:19;;;;;;;16.65;12.48;;;6.50;99.90;;;;;;5021196;28;20025;-80
2022/01/17 02:02:45;;;;;;;21.77;14.70;;;6.30;99.90;;;;;;5022496;28;20112;-79
2022/01/17 02:05:11;;;;;;;21.85;15.23;;;6.20;99.90;;;;;;5015802;28;20118;-80
2022/01/17 02:07:39;;;;;;;25.15;15.38;;;6.10;99.90;;;;;;5016928;28;20038;-80
2022/01/17 02:10:08;;;;;;;24.65;19.80;;;6.10;99.90;;;;;;5022515;28;20022;-79
2022/01/17 02:12:34;;;;;;;25.90;18.92;;;6.10;99.90;;;;;;5020413;28;20025;-79
2022/01/17 02:15:01;;;;;;;32.45;20.38;;;6.30;99.90;;;;;;5023673;28;20030;-80
2022/01/17 02:17:27;;;;;;;42.05;29.25;;;6.30;99.90;;;;;;5025789;28;20030;-80
2022/01/17 02:20:03;;;;;;;35.33;25.88;;;6.30;99.90;;;;;;5024324;28;20127;-80
2022/01/17 02:22:29;;;;;;;43.90;29.77;;;6.30;99.90;;;;;;5019714;28;20168;-80
2022/01/17 02:24:55;;;;;;;33.08;24.63;;;6.40;99.90;;;;;;5003640;28;20021;-79
2022/01/17 02:27:21;;;;;;;30.45;22.52;;;6.40;99.90;;;;;;5024549;28;20050;-80
2022/01/17 02:29:47;;;;;;;29.77;21.20;;;6.40;99.90;;;;;;5013140;28;20050;-80
2022/01/17 02:32:13;;;;;;;26.88;20.50;;;6.40;99.90;;;;;;5000516;28;20030;-80
2022/01/17 02:34:41;;;;;;;31.55;21.80;;;6.30;99.90;;;;;;5015607;28;20034;-80
2022/01/17 02:37:08;;;;;;;28.55;18.75;;;6.20;99.90;;;;;;4999062;28;20021;-80
2022/01/17 02:39:34;;;;;;;33.63;22.33;;;6.10;99.90;;;;;;5018589;28;20029;-80
2022/01/17 02:42:03;;;;;;;37.35;27.55;;;6.00;99.90;;;;;;5016977;28;20030;-80
2022/01/17 02:44:29;;;;;;;37.55;27.45;;;6.00;99.90;;;;;;5021628;28;20073;-80
2022/01/17 02:46:55;;;;;;;38.60;28.27;;;6.00;99.90;;;;;;4998910;28;20131;-79
2022/01/17 02:49:21;;;;;;;42.63;28.42;;;6.10;99.90;;;;;;5001376;28;20026;-80
2022/01/17 02:51:48;;;;;;;39.45;29.15;;;6.10;99.90;;;;;;4999299;28;20595;-80
2022/01/17 02:54:17;;;;;;;38.70;29.55;;;6.10;99.90;;;;;;5019462;28;20022;-80
2022/01/17 02:56:43;;;;;;;33.97;26.45;;;6.10;99.90;;;;;;5005817;28;20033;-80
2022/01/17 02:59:10;;;;;;;46.55;33.05;;;6.00;99.90;;;;;;5017301;28;20038;-80
2022/01/17 03:01:36;;;;;;;52.10;37.42;;;5.90;99.90;;;;;;5018523;28;20037;-80
2022/01/17 03:04:04;;;;;;;42.83;30.80;;;5.90;99.90;;;;;;4999993;28;20113;-80
2022/01/17 03:06:30;;;;;;;40.92;29.85;;;5.80;99.90;;;;;;5028607;28;20036;-80
2022/01/17 03:08:56;;;;;;;36.03;26.63;;;5.70;99.90;;;;;;5025081;28;20108;-80
2022/01/17 03:11:24;;;;;;;33.08;26.17;;;5.70;99.90;;;;;;5020128;28;20100;-80
2022/01/17 03:13:51;;;;;;;33.35;23.67;;;5.60;99.90;;;;;;5026127;28;20028;-80
2022/01/17 03:16:21;;;;;;;28.65;20.92;;;5.50;99.90;;;;;;4999382;28;20504;-80
2022/01/17 03:18:50;;;;;;;28.35;19.75;;;5.40;99.90;;;;;;5000005;28;20022;-80
2022/01/17 03:21:17;;;;;;;21.42;17.77;;;5.20;99.90;;;;;;5001177;28;20025;-79
2022/01/17 03:23:45;;;;;;;26.27;19.42;;;5.10;99.90;;;;;;5014524;28;20029;-79
2022/01/17 03:26:12;;;;;;;22.65;17.63;;;4.90;99.90;;;;;;5009341;28;20045;-80
2022/01/17 03:28:41;;;;;;;28.65;22.05;;;4.80;99.90;;;;;;5022059;28;20436;-80
2022/01/17 03:31:08;;;;;;;35.03;25.33;;;4.80;99.90;;;;;;5017338;28;20092;-80
2022/01/17 03:33:34;;;;;;;35.00;25.55;;;4.70;99.90;;;;;;5018468;28;20030;-79
2022/01/17 03:36:01;;;;;;;38.45;24.92;;;4.70;99.90;;;;;;5025615;28;20388;-79
2022/01/17 03:38:29;;;;;;;33.42;24.85;;;4.70;99.90;;;;;;5021659;28;20052;-79
2022/01/17 03:40:57;;;;;;;35.40;26.35;;;4.70;99.90;;;;;;5017059;28;20014;-80
2022/01/17 03:43:24;;;;;;;32.95;25.27;;;4.70;99.90;;;;;;5021849;28;20029;-79
2022/01/17 03:45:50;;;;;;;29.33;21.65;;;4.70;99.90;;;;;;4994239;28;20111;-79
2022/01/17 03:48:18;;;;;;;28.15;20.15;;;4.60;99.90;;;;;;5021535;28;20033;-79
2022/01/17 03:50:44;;;;;;;26.98;19.67;;;4.50;99.90;;;;;;5017371;28;20022;-79
2022/01/17 03:53:55;;;;;;;;;;;;;;;;;;;;;
2022/01/17 03:56:55;;;;;;;;;;;;;;;;;;;;;
2022/01/17 04:00:17;;;;;;;20.52;16.58;;;4.40;99.90;;;;;;4907461;29;20035;-79
2022/01/17 04:17:49;;;;;;;23.63;17.35;;;4.40;99.90;;;;;;4870265;29;20108;-79
2022/01/17 04:34:26;;;;;;;24.35;17.08;;;4.20;99.90;;;;;;4917493;29;20082;-79
2022/01/17 04:36:52;;;;;;;26.27;16.35;;;4.30;99.90;;;;;;4917686;29;20058;-79
2022/01/17 04:40:33;;;;;;;;;;;;;;;;;;;;;
2022/01/17 04:47:14;;;;;;;27.08;17.92;;;4.50;99.90;;;;;;4942876;28;20090;-79
2022/01/17 04:53:19;;;;;;;23.30;16.90;;;4.80;99.90;;;;;;4940066;28;20398;-81
2022/01/17 04:56:36;;;;;;;;;;;;;;;;;;;;;
2022/01/17 05:03:50;;;;;;;26.23;18.50;;;4.50;99.90;;;;;;4868069;29;20037;-80
2022/01/17 05:06:21;;;;;;;24.80;18.98;;;4.50;99.90;;;;;;4840556;29;20048;-81
2022/01/17 05:12:54;;;;;;;28.33;18.40;;;4.30;99.90;;;;;;4959679;28;20035;-80
2022/01/17 05:15:45;;;;;;;27.55;21.33;;;4.20;99.90;;;;;;4965283;28;20474;-80
2022/01/17 05:24:49;;;;;;;29.63;20.75;;;4.10;99.90;;;;;;4918903;29;20047;-80
2022/01/17 05:27:30;;;;;;;28.95;21.50;;;4.10;99.90;;;;;;4939432;28;20244;-80
2022/01/17 05:30:19;;;;;;;33.60;21.02;;;4.00;99.90;;;;;;4949581;28;20059;-80
2022/01/17 05:35:54;;;;;;;26.30;20.50;;;4.10;99.90;;;;;;4998604;28;20030;-81
2022/01/17 05:39:02;;;;;;;25.88;18.80;;;4.00;99.90;;;;;;5006660;28;20548;-80
2022/01/17 05:44:32;;;;;;;21.10;16.15;;;4.00;99.90;;;;;;5005863;28;20065;-80
2022/01/17 05:46:58;;;;;;;19.35;15.55;;;4.00;99.90;;;;;;4979805;28;20042;-81
2022/01/17 05:52:49;;;;;;;27.90;17.88;;;3.90;99.90;;;;;;4911896;28;20637;-80
2022/01/17 05:55:29;;;;;;;25.30;18.20;;;3.90;99.90;;;;;;5000756;28;20509;-80
2022/01/17 05:57:56;;;;;;;22.42;17.48;;;3.90;99.90;;;;;;4999384;28;20027;-80
2022/01/17 06:00:25;;;;;;;23.40;16.90;;;3.90;99.90;;;;;;5005153;28;20034;-80
2022/01/17 06:03:22;;;;;;;28.02;18.25;;;3.90;99.90;;;;;;4984372;28;20030;-80
2022/01/17 06:05:48;;;;;;;22.70;17.90;;;3.80;99.90;;;;;;5001037;28;20090;-80
2022/01/17 06:08:17;;;;;;;24.05;17.80;;;3.80;99.90;;;;;;4984275;28;20041;-81
2022/01/17 06:11:12;;;;;;;21.88;17.13;;;3.90;99.90;;;;;;4976478;28;20031;-80
2022/01/17 06:13:38;;;;;;;21.25;16.05;;;3.90;99.90;;;;;;4999018;28;20037;-80
2022/01/17 06:18:50;;;;;;;23.45;17.02;;;3.90;99.90;;;;;;4970802;28;20033;-81
2022/01/17 06:21:47;;;;;;;21.35;16.15;;;3.80;99.90;;;;;;4997708;28;20018;-80
2022/01/17 06:24:13;;;;;;;16.17;13.35;;;3.80;99.90;;;;;;4998804;28;20161;-80
2022/01/17 06:27:01;;;;;;;17.67;12.75;;;3.80;99.90;;;;;;4980010;28;20104;-80
2022/01/17 06:30:13;;;;;;;17.85;12.90;;;3.80;99.90;;;;;;4999625;28;20027;-80
2022/01/17 06:32:49;;;;;;;17.38;12.30;;;3.90;99.90;;;;;;4978962;28;20121;-81
2022/01/17 06:35:21;;;;;;;17.05;13.00;;;3.90;99.90;;;;;;4994606;28;20482;-80
2022/01/17 06:37:54;;;;;;;20.58;13.63;;;3.90;99.90;;;;;;4999706;28;20037;-81
2022/01/17 06:40:22;;;;;;;;;;;3.80;99.90;;;;;;4998317;28;20036;-80
2022/01/17 06:42:51;;;;;;;18.13;11.93;;;3.90;99.90;;;;;;4981177;28;20315;-80
2022/01/17 06:45:21;;;;;;;24.25;13.23;;;3.90;99.90;;;;;;5001634;28;20121;-80
2022/01/17 06:47:47;;;;;;;17.00;13.55;;;4.00;99.90;;;;;;4994605;28;20038;-80
2022/01/17 06:50:13;;;;;;;20.33;13.93;;;4.00;99.90;;;;;;4985100;28;20026;-80
2022/01/17 06:52:44;;;;;;;21.13;14.95;;;4.00;99.90;;;;;;4991927;28;20476;-86
2022/01/17 06:55:34;;;;;;;19.10;14.73;;;4.00;99.90;;;;;;4988212;28;20035;-94
2022/01/17 06:58:01;;;;;;;23.00;17.70;;;3.90;99.90;;;;;;4987228;28;20026;-85
2022/01/17 07:00:41;;;;;;;24.25;17.88;;;3.90;99.90;;;;;;4979940;28;20489;-90
2022/01/17 07:03:37;;;;;;;24.73;17.58;;;3.90;99.90;;;;;;5003900;28;20108;-91
2022/01/17 07:06:03;;;;;;;27.10;19.00;;;4.00;99.90;;;;;;5011350;28;20038;-94
2022/01/17 07:08:28;;;;;;;24.42;19.17;;;3.90;99.90;;;;;;4987567;28;20041;-80
2022/01/17 07:11:01;;;;;;;52.85;32.17;;;3.90;99.90;;;;;;4998142;28;20754;-81
2022/01/17 07:13:30;;;;;;;;;;;3.90;99.90;;;;;;4986298;28;20484;-82
2022/01/17 07:16:13;;;;;;;35.53;25.13;;;3.90;99.90;;;;;;4998090;28;20048;-81
2022/01/17 07:18:59;;;;;;;28.25;20.00;;;4.00;99.90;;;;;;5004342;28;20037;-81
2022/01/17 07:21:25;;;;;;;23.10;18.38;;;4.00;99.90;;;;;;4995333;28;20037;-82
2022/01/17 07:23:51;;;;;;;22.08;14.32;;;4.20;99.90;;;;;;4997675;28;20366;-82
2022/01/17 07:26:16;;;;;;;22.88;13.05;;;4.30;99.90;;;;;;5007093;28;20026;-80
2022/01/17 07:28:42;;;;;;;21.45;13.75;;;4.40;99.90;;;;;;4996626;28;20034;-82
2022/01/17 07:31:08;;;;;;;20.33;13.05;;;4.50;99.90;;;;;;5019138;28;20078;-83
2022/01/17 07:33:37;;;;;;;23.23;14.02;;;4.60;99.90;;;;;;5024701;28;20049;-83
2022/01/17 07:36:06;;;;;;;22.30;16.02;;;4.70;99.90;;;;;;5017168;28;20010;-82
2022/01/17 07:38:34;;;;;;;40.60;24.75;;;4.70;99.90;;;;;;5006478;28;20529;-82
2022/01/17 07:41:00;;;;;;;20.98;13.35;;;4.80;99.90;;;;;;5017339;28;20018;-83
2022/01/17 07:43:26;;;;;;;20.60;13.27;;;4.80;99.90;;;;;;5025056;28;20032;-82
2022/01/17 07:46:13;;;;;;;19.70;13.32;;;4.90;99.90;;;;;;5017259;28;20512;-81
2022/01/17 07:48:58;;;;;;;20.23;12.90;;;5.10;99.90;;;;;;5019526;28;20029;-82
2022/01/17 07:51:25;;;;;;;16.35;11.50;;;5.20;99.90;;;;;;5027634;28;20029;-83
2022/01/17 07:53:52;;;;;;;21.83;13.82;;;5.30;99.90;;;;;;5017010;28;20111;-82
2022/01/17 07:56:18;;;;;;;15.35;11.20;;;5.30;99.90;;;;;;5027648;28;20033;-82
2022/01/17 07:58:44;;;;;;;11.75;9.63;;;5.40;99.90;;;;;;4998866;28;20515;-83
2022/01/17 08:01:11;;;;;;;10.68;8.48;;;5.50;99.90;;;;;;5012645;28;20496;-83
2022/01/17 08:03:37;;;;;;;13.43;10.55;;;5.60;99.90;;;;;;5019541;28;20052;-82
2022/01/17 08:06:26;;;;;;;16.45;9.50;;;5.80;99.90;;;;;;5007769;28;20036;-82
2022/01/17 08:08:55;;;;;;;12.90;10.60;;;6.00;99.90;;;;;;5013613;28;20045;-82
2022/01/17 08:11:27;;;;;;;16.25;11.77;;;6.10;99.90;;;;;;5027480;28;20022;-83
2022/01/17 08:13:55;;;;;;;22.95;13.57;;;6.10;99.90;;;;;;5016616;28;20164;-82
2022/01/17 08:16:51;;;;;;;33.85;17.83;;;6.20;99.90;;;;;;5027448;28;20091;-82
2022/01/17 08:19:17;;;;;;;27.75;15.35;;;6.20;99.90;;;;;;5007097;28;20148;-82
2022/01/17 08:21:51;;;;;;;16.58;11.18;;;6.30;99.90;;;;;;4998390;28;20068;-82
2022/01/17 08:24:21;;;;;;;26.70;16.08;;;6.40;99.90;;;;;;5005183;28;20025;-82
2022/01/17 08:26:58;;;;;;;17.55;11.23;;;6.50;99.90;;;;;;5016313;28;20032;-82
2022/01/17 08:29:25;;;;;;;20.13;11.93;;;6.60;99.90;;;;;;5000985;28;20061;-82
2022/01/17 08:31:59;;;;;;;22.55;13.38;;;6.80;99.90;;;;;;5024609;28;20588;-82
2022/01/17 08:34:28;;;;;;;17.45;11.23;;;6.90;99.90;;;;;;5017755;28;20022;-83
2022/01/17 08:36:54;;;;;;;14.68;10.80;;;7.00;99.90;;;;;;5027440;28;20026;-82
2022/01/17 08:39:20;;;;;;;23.08;11.63;;;7.10;99.90;;;;;;5021791;28;20388;-82
2022/01/17 08:41:47;;;;;;;19.92;13.23;;;7.20;99.90;;;;;;5011614;28;20025;-83
2022/01/17 08:44:17;;;;;;;28.35;17.52;;;7.20;99.90;;;;;;5010025;28;20029;-83
2022/01/17 08:46:49;;;;;;;25.52;17.25;;;7.30;99.90;;;;;;5002057;28;20388;-82
2022/01/17 08:49:16;;;;;;;28.42;19.35;;;7.40;99.90;;;;;;5019152;28;20556;-82
2022/01/17 08:51:43;;;;;;;25.13;19.15;;;7.40;99.90;;;;;;5029571;28;20103;-82
2022/01/17 08:54:09;;;;;;;26.85;19.73;;;7.40;99.90;;;;;;5020238;28;20022;-82
2022/01/17 08:56:44;;;;;;;32.22;20.63;;;7.40;99.90;;;;;;5031309;28;20033;-83
2022/01/17 08:59:21;;;;;;;34.22;23.55;;;7.40;99.90;;;;;;5021148;28;20036;-82
2022/01/17 09:01:49;;;;;;;35.65;25.77;;;7.50;99.90;;;;;;5013472;28;20542;-83
2022/01/17 09:04:15;;;;;;;35.55;26.17;;;7.50;99.90;;;;;;5026083;28;20033;-82
2022/01/17 09:09:56;;;;;;;42.45;24.98;;;7.70;99.90;;;;;;5009322;28;20100;-82
2022/01/17 09:12:25;;;;;;;33.88;24.02;;;7.80;99.90;;;;;;5021060;28;20029;-82
2022/01/17 09:14:54;;;;;;;35.00;25.35;;;7.90;99.90;;;;;;5026364;28;20030;-83
2022/01/17 09:17:23;;;;;;;41.90;23.98;;;8.00;99.90;;;;;;5019463;28;20038;-83
2022/01/17 09:19:51;;;;;;;37.78;24.85;;;8.10;99.90;;;;;;5022552;28;20026;-82
2022/01/17 09:22:20;;;;;;;39.78;26.15;;;8.10;99.90;;;;;;5024884;28;20124;-82
2022/01/17 09:25:06;;;;;;;33.63;25.23;;;8.20;99.90;;;;;;5004793;28;20029;-82
2022/01/17 09:27:53;;;;;;;35.88;25.50;;;8.20;99.90;;;;;;5024473;28;20026;-82
2022/01/17 09:30:19;;;;;;;41.15;26.45;;;8.20;99.90;;;;;;5004011;28;20516;-83
2022/01/17 09:32:46;;;;;;;31.42;24.38;;;8.40;99.90;;;;;;5004899;28;20044;-83
2022/01/17 09:35:13;;;;;;;36.63;25.10;;;8.40;99.90;;;;;;5005950;28;20045;-82
2022/01/17 09:37:40;;;;;;;34.67;24.75;;;8.60;99.90;;;;;;5004545;28;20025;-83
2022/01/17 09:40:27;;;;;;;34.75;24.20;;;8.80;99.90;;;;;;5023516;28;20036;-82
2022/01/17 09:43:14;;;;;;;32.03;22.42;;;9.10;99.90;;;;;;5025400;28;20029;-82
2022/01/17 09:45:40;;;;;;;35.10;22.65;;;9.30;99.90;;;;;;5026688;28;20053;-83
2022/01/17 09:48:47;;;;;;;28.92;21.85;;;9.40;99.90;;;;;;5022064;28;20073;-83
2022/01/17 09:51:37;;;;;;;29.30;21.92;;;9.50;99.90;;;;;;5028155;28;20535;-83
2022/01/17 09:54:30;;;;;;;30.42;21.75;;;9.70;99.90;;;;;;4997388;28;20448;-82
2022/01/17 09:56:58;;;;;;;33.42;22.42;;;9.90;99.90;;;;;;5008977;28;20052;-84
2022/01/17 09:59:48;;;;;;;24.63;21.30;;;10.20;99.90;;;;;;5019677;28;20038;-83
2022/01/17 10:02:37;;;;;;;30.67;21.70;;;10.50;99.90;;;;;;5007098;28;20022;-83
2022/01/17 10:05:27;;;;;;;32.08;22.98;;;10.40;99.90;;;;;;5020469;28;20494;-82
2022/01/17 10:08:00;;;;;;;26.83;21.38;;;10.60;99.90;;;;;;5005897;28;20065;-83
2022/01/17 10:13:51;;;;;;;31.90;22.80;;;10.50;99.90;;;;;;5021890;28;20040;-82
2022/01/17 10:16:25;;;;;;;22.67;18.00;;;10.50;99.90;;;;;;5018190;28;20036;-83
2022/01/17 10:18:55;;;;;;;24.95;17.50;;;10.30;99.90;;;;;;5015600;28;20116;-83
2022/01/17 10:21:54;;;;;;;27.75;18.23;;;10.40;99.90;;;;;;5028394;28;20032;-83
2022/01/17 10:35:49;;;;;;;24.13;19.05;;;10.50;99.90;;;;;;5024168;28;20036;-83
2022/01/17 10:38:27;;;;;;;26.58;18.98;;;10.90;99.90;;;;;;5019073;28;20052;-82
2022/01/17 10:41:02;;;;;;;26.33;20.55;;;11.40;99.90;;;;;;5008842;28;20021;-82
2022/01/17 10:43:42;;;;;;;25.15;19.77;;;11.70;99.90;;;;;;5010539;28;20080;-83
2022/01/17 10:46:22;;;;;;;25.20;20.25;;;11.70;99.90;;;;;;5027310;28;20119;-83
2022/01/17 10:48:57;;;;;;;32.35;20.40;;;11.80;99.90;;;;;;5014539;28;20034;-82
2022/01/17 10:51:35;;;;;;;28.38;21.35;;;12.10;99.90;;;;;;5028291;28;20022;-83
2022/01/17 10:54:19;;;;;;;34.28;21.48;;;12.10;99.90;;;;;;5026517;28;20033;-83
2022/01/17 10:57:04;;;;;;;28.20;18.63;;;11.90;99.90;;;;;;4986404;28;20381;-82
2022/01/17 11:03:27;;;;;;;;;;;;;;;;;;;;;
2022/01/17 11:06:05;;;;;;;;;;;;;;;;;;;;;
2022/01/17 11:09:35;;;;;;;;;;;;;;;;;;;;;
2022/01/17 11:12:08;;;;;;;37.97;29.15;;;10.40;99.90;;;;;;4992527;28;20033;-85
2022/01/17 11:14:37;;;;;;;46.25;31.92;;;10.50;99.90;;;;;;5010384;28;20030;-84
2022/01/17 11:17:46;;;;;;;47.13;35.45;;;10.40;99.90;;;;;;5015957;28;20084;-84
2022/01/17 11:20:15;;;;;;;51.38;39.05;;;10.60;99.90;;;;;;5021473;28;20108;-84
2022/01/17 11:22:46;;;;;;;63.53;42.17;;;10.90;99.90;;;;;;5022774;28;20053;-84
2022/01/17 11:25:23;;;;;;;57.05;42.85;;;11.10;99.90;;;;;;5022340;28;20017;-83
2022/01/17 11:27:50;;;;;;;56.17;41.00;;;11.40;99.90;;;;;;5004510;28;20132;-84
2022/01/17 11:30:22;;;;;;;58.97;43.67;;;11.40;99.90;;;;;;5021006;28;20108;-82
2022/01/17 11:32:50;;;;;;;56.35;45.20;;;11.20;99.90;;;;;;5020563;28;20076;-83
2022/01/17 11:35:17;;;;;;;79.57;52.53;;;10.90;99.90;;;;;;5023145;28;20044;-83
2022/01/17 11:37:49;;;;;;;70.30;52.35;;;10.50;99.90;;;;;;5022282;28;20033;-82
2022/01/17 11:40:23;;;;;;;91.55;56.00;;;10.10;99.90;;;;;;5022634;28;20018;-83
2022/01/17 11:43:00;;;;;;;72.22;54.95;;;9.80;99.90;;;;;;5023296;28;20116;-82
2022/01/17 11:46:30;;;;;;;75.53;54.13;;;9.70;99.90;;;;;;5020582;28;20472;-83
2022/01/17 11:49:07;;;;;;;78.05;59.10;;;9.60;99.90;;;;;;5014513;28;20134;-83
2022/01/17 11:51:51;;;;;;;75.15;57.95;;;9.30;99.90;;;;;;5000779;28;20021;-82
2022/01/17 11:54:28;;;;;;;83.45;62.50;;;9.00;99.90;;;;;;5023313;28;20029;-83
2022/01/17 11:57:33;;;;;;;87.10;61.58;;;8.90;99.90;;;;;;4997011;28;20026;-82
2022/01/17 12:00:28;;;;;;;85.93;61.17;;;8.80;99.90;;;;;;5017371;28;20033;-82
2022/01/17 12:06:32;;;;;;;87.00;64.47;;;8.80;99.90;;;;;;5021365;28;20167;-84
2022/01/17 12:09:22;;;;;;;73.32;58.40;;;9.00;99.90;;;;;;5014559;28;20026;-83
2022/01/17 12:12:15;;;;;;;74.97;57.15;;;9.30;99.90;;;;;;5004572;28;20402;-82
2022/01/17 12:14:57;;;;;;;74.97;56.85;;;9.60;99.90;;;;;;4994520;28;20132;-83
2022/01/17 12:17:48;;;;;;;68.50;52.27;;;9.80;99.90;;;;;;5023168;28;20105;-83
2022/01/17 12:20:52;;;;;;;66.32;51.15;;;10.00;99.90;;;;;;5003467;28;20029;-83
2022/01/17 12:24:04;;;;;;;59.50;46.45;;;10.10;99.90;;;;;;4993083;28;20033;-82
2022/01/17 12:26:32;;;;;;;63.50;48.78;;;10.40;99.90;;;;;;4871269;29;20034;-83
2022/01/17 12:32:47;;;;;;;54.42;40.33;;;10.40;99.90;;;;;;4898074;29;20048;-82
2022/01/17 12:35:48;;;;;;;55.30;38.95;;;10.80;99.90;;;;;;4921334;29;20032;-84
2022/01/17 12:42:09;;;;;;;43.38;33.75;;;14.00;99.90;;;;;;4913470;29;20091;-84
2022/01/17 12:44:43;;;;;;;44.10;34.08;;;16.90;99.90;;;;;;4911656;29;20063;-84
2022/01/17 12:47:09;;;;;;;38.92;31.15;;;18.80;99.90;;;;;;4924476;29;20040;-84
2022/01/17 12:49:35;;;;;;;40.00;29.35;;;19.50;99.90;;;;;;4975187;28;20049;-84
2022/01/17 12:52:09;;;;;;;36.35;26.00;;;20.50;99.90;;;;;;5026097;28;20032;-85
2022/01/17 12:54:41;;;;;;;39.80;29.05;;;21.20;97.90;;;;;;5019723;28;20458;-84
2022/01/17 12:57:09;;;;;;;38.72;28.05;;;22.30;94.40;;;;;;5016108;28;20029;-84
2022/01/17 12:59:43;;;;;;;33.75;26.90;;;23.40;90.50;;;;;;5012847;28;20493;-86
2022/01/17 13:02:13;;;;;;;33.50;26.45;;;24.20;82.90;;;;;;5016572;28;20116;-92
2022/01/17 13:04:48;;;;;;;39.88;26.95;;;24.30;78.90;;;;;;5005800;28;20029;-92
2022/01/17 13:07:25;;;;;;;32.08;27.92;;;24.60;75.10;;;;;;4998672;28;20557;-85
2022/01/17 13:09:54;;;;;;;35.03;24.63;;;25.00;73.70;;;;;;5028377;28;20456;-89
2022/01/17 13:12:31;;;;;;;36.95;25.50;;;24.80;71.90;;;;;;5003712;28;20061;-87
2022/01/17 13:15:12;;;;;;;23.73;20.13;;;24.90;71.40;;;;;;5021341;28;20476;-82
2022/01/17 13:17:52;;;;;;;32.92;25.85;;;24.40;69.40;;;;;;4998420;28;20182;-84
2022/01/17 13:20:35;;;;;;;37.58;26.80;;;24.50;70.00;;;;;;5020892;28;20057;-85
2022/01/17 13:23:06;;;;;;;27.83;20.20;;;23.90;69.20;;;;;;5026528;28;20029;-87
2022/01/17 13:25:32;;;;;;;33.03;27.52;;;24.00;67.70;;;;;;5018167;28;20104;-86
2022/01/17 13:28:03;;;;;;;37.85;28.25;;;24.20;69.60;;;;;;5024348;28;20558;-88
2022/01/17 13:30:38;;;;;;;40.15;31.05;;;24.20;70.00;;;;;;4995725;28;20031;-86
2022/01/17 13:33:10;;;;;;;40.70;32.83;;;23.60;72.20;;;;;;5024098;28;20030;-85
2022/01/17 13:35:43;;;;;;;41.65;34.08;;;22.60;73.70;;;;;;5005074;28;20080;-88
2022/01/17 13:38:20;;;;;;;44.20;34.65;;;21.30;77.50;;;;;;5024633;28;20208;-86
2022/01/17 13:41:02;;;;;;;47.22;35.67;;;20.70;80.60;;;;;;5027721;28;20463;-83
2022/01/17 13:43:28;;;;;;;47.83;36.60;;;19.90;84.50;;;;;;5019588;28;20024;-84
2022/01/17 13:45:57;;;;;;;53.55;38.78;;;19.00;88.90;;;;;;5015205;28;20025;-83
2022/01/17 13:48:27;;;;;;;46.50;36.13;;;18.40;91.60;;;;;;5020472;28;20053;-90
2022/01/17 13:51:03;;;;;;;48.00;37.83;;;17.90;93.00;;;;;;4997094;28;20481;-82
2022/01/17 13:53:34;;;;;;;50.90;38.92;;;17.50;94.30;;;;;;5023861;28;20029;-84
2022/01/17 13:56:05;;;;;;;51.47;41.00;;;16.70;96.90;;;;;;5019308;28;20018;-84
2022/01/17 13:58:43;;;;;;;53.78;39.20;;;16.40;99.50;;;;;;5003579;28;20511;-84
2022/01/17 14:01:17;;;;;;;54.83;40.95;;;16.70;99.90;;;;;;5023732;28;20030;-85
2022/01/17 14:03:46;;;;;;;55.55;39.67;;;16.90;99.90;;;;;;5002228;28;20025;-84
2022/01/17 14:06:17;;;;;;;56.83;42.28;;;17.00;99.90;;;;;;5018715;28;20021;-87
2022/01/17 14:08:52;;;;;;;54.72;42.28;;;17.00;99.90;;;;;;5003152;28;20034;-82
2022/01/17 14:11:24;;;;;;;54.35;41.08;;;16.80;99.90;;;;;;5014785;28;20051;-82
2022/01/17 14:13:56;;;;;;;53.53;40.13;;;16.40;99.90;;;;;;5020086;28;20045;-82
2022/01/17 14:16:24;;;;;;;53.10;40.78;;;16.70;99.90;;;;;;5016265;28;20033;-82
2022/01/17 14:18:51;;;;;;;50.08;40.92;;;17.00;99.90;;;;;;5006338;28;20036;-82
2022/01/17 14:21:37;;;;;;;59.90;41.47;;;16.70;99.90;;;;;;5016664;28;20109;-83
2022/01/17 14:24:13;;;;;;;52.83;37.88;;;16.50;99.90;;;;;;5022901;28;20496;-82
2022/01/17 14:26:51;;;;;;;55.70;40.22;;;16.90;99.90;;;;;;4992860;28;20033;-82
2022/01/17 14:29:21;;;;;;;58.78;41.13;;;16.00;99.90;;;;;;5018060;28;20018;-81
2022/01/17 14:31:52;;;;;;;53.22;39.00;;;14.70;99.90;;;;;;5021725;28;20514;-81
2022/01/17 14:34:55;;;;;;;57.33;42.08;;;13.50;99.90;;;;;;5017384;28;20027;-81
2022/01/17 14:37:24;;;;;;;62.85;43.30;;;12.30;99.90;;;;;;4971415;28;20528;-82
2022/01/17 14:39:56;;;;;;;67.57;46.95;;;11.70;99.90;;;;;;5023169;28;20460;-82
2022/01/17 14:42:34;;;;;;;70.32;49.85;;;11.50;99.90;;;;;;5022934;28;20034;-82
2022/01/17 14:45:02;;;;;;;66.55;48.40;;;11.40;99.90;;;;;;5004898;28;20027;-82
2022/01/17 14:47:43;;;;;;;67.63;47.60;;;11.00;99.90;;;;;;5000903;28;20451;-82
2022/01/17 14:50:12;;;;;;;62.90;46.72;;;10.80;99.90;;;;;;5023113;28;20022;-82
2022/01/17 14:52:40;;;;;;;64.40;50.55;;;10.60;99.90;;;;;;5018585;28;20030;-82
2022/01/17 14:55:40;;;;;;;73.72;51.17;;;10.30;99.90;;;;;;5023180;28;20029;-82
2022/01/17 15:01:01;;;;;;;66.85;48.88;;;9.60;99.90;;;;;;5020271;28;20112;-81
2022/01/17 15:03:31;;;;;;;66.72;49.80;;;9.40;99.90;;;;;;5000993;28;20036;-81
2022/01/17 15:05:58;;;;;;;67.10;48.40;;;9.10;99.90;;;;;;5026552;28;20087;-81
2022/01/17 15:08:23;;;;;;;62.38;49.10;;;8.80;99.90;;;;;;5021781;28;20091;-81